Time;durP1;ratioP1;P1;durP2;ratioP2;P2;SDS_P1;SDS_P2;PMS_P1;PMS_P2;Temp;Humidity;BMP_temperature;BMP_pressure;BME280_temperature;BME280_humidity;BME280_pressure;Samples;Min_cycle;Max_cycle;Signal;HPM_P1;HPM_P2
2022/08/04 05:01:36;;;;;;;3.45;1.90;;;21.70;86.80;;;;;;5914321;23;20043;31
2022/08/04 05:04:18;;;;;;;3.05;1.70;;;21.70;86.80;;;;;;4852780;29;20208;-76
2022/08/04 05:07:07;;;;;;;4.95;1.63;;;21.70;86.70;;;;;;4852659;29;20040;-76
2022/08/04 05:09:54;;;;;;;6.07;1.88;;;21.80;87.10;;;;;;4839750;29;20082;-77
2022/08/04 05:12:46;;;;;;;2.95;1.80;;;21.80;87.50;;;;;;4867041;29;20057;-77
2022/08/04 05:15:15;;;;;;;3.70;1.75;;;21.90;87.60;;;;;;4865634;29;20057;-77
2022/08/04 05:17:47;;;;;;;3.60;2.20;;;22.00;87.60;;;;;;4854927;29;20386;-77
2022/08/04 05:20:26;;;;;;;4.38;1.95;;;22.10;87.70;;;;;;4836322;29;20034;-77
2022/08/04 05:23:12;;;;;;;5.03;2.97;;;22.20;87.20;;;;;;4854279;29;20061;-76
2022/08/04 05:25:57;;;;;;;3.97;2.22;;;22.30;87.20;;;;;;4871587;29;20037;-76
2022/08/04 05:28:44;;;;;;;4.85;1.67;;;22.50;86.50;;;;;;4865200;29;20037;-77
2022/08/04 05:31:31;;;;;;;5.00;2.00;;;22.50;86.30;;;;;;4854501;29;20244;-77
2022/08/04 05:34:11;;;;;;;3.67;1.77;;;22.60;86.10;;;;;;4870014;29;20059;-76
2022/08/04 05:36:48;;;;;;;5.13;2.30;;;22.60;86.00;;;;;;4859924;29;20097;-76
2022/08/04 05:39:27;;;;;;;4.15;2.20;;;22.70;86.10;;;;;;4836288;29;20218;-76
2022/08/04 05:41:55;;;;;;;4.60;2.22;;;22.80;85.70;;;;;;4843767;29;20041;-76
2022/08/04 05:44:22;;;;;;;6.38;2.15;;;22.80;85.30;;;;;;4870962;29;20043;-75
2022/08/04 05:46:51;;;;;;;4.90;2.13;;;22.90;85.00;;;;;;4870648;29;20045;-76
2022/08/04 05:49:19;;;;;;;2.72;1.60;;;23.10;84.60;;;;;;4870745;29;20096;-76
2022/08/04 05:51:46;;;;;;;6.68;1.88;;;23.20;83.50;;;;;;4868792;29;20026;-77
2022/08/04 05:54:14;;;;;;;4.95;2.10;;;23.30;83.60;;;;;;4870218;29;20026;-76
2022/08/04 05:56:41;;;;;;;4.70;1.93;;;23.40;83.00;;;;;;4854441;29;20026;-76
2022/08/04 05:59:09;;;;;;;4.82;1.75;;;23.50;82.50;;;;;;4852609;29;20263;-77
2022/08/04 06:01:38;;;;;;;7.70;2.15;;;23.60;82.00;;;;;;4856577;29;20112;-77
2022/08/04 06:04:04;;;;;;;;;;;23.70;81.70;;;;;;4889195;29;20040;-77
2022/08/04 06:06:30;;;;;;;;;;;23.80;81.50;;;;;;4873354;29;19971;-76
2022/08/04 06:08:56;;;;;;;;;;;23.90;81.70;;;;;;4882199;29;19908;-76
2022/08/04 06:11:24;;;;;;;;;;;24.00;81.70;;;;;;4871316;29;20194;-76
2022/08/04 06:13:52;;;;;;;;;;;24.00;82.00;;;;;;4870967;29;19916;-76
2022/08/04 06:16:22;;;;;;;;;;;24.10;81.60;;;;;;4869613;29;20232;-77
2022/08/04 06:18:49;;;;;;;;;;;24.30;81.00;;;;;;4870605;29;20020;-77
2022/08/04 06:21:17;;;;;;;;;;;24.50;80.10;;;;;;4852645;29;19916;-76
2022/08/04 06:23:44;;;;;;;;;;;24.60;79.80;;;;;;4868645;29;19946;-76
2022/08/04 06:26:10;;;;;;;;;;;24.70;79.60;;;;;;4868522;29;19937;-76
2022/08/04 06:28:36;;;;;;;;;;;24.90;79.50;;;;;;4871200;29;19920;-79
2022/08/04 06:31:04;;;;;;;;;;;24.90;79.90;;;;;;4884497;29;19951;-78
2022/08/04 06:33:33;;;;;;;;;;;24.90;80.30;;;;;;4886123;29;19920;-78
2022/08/04 06:36:03;;;;;;;;;;;24.90;80.10;;;;;;4885812;29;20208;-77
2022/08/04 06:38:30;;;;;;;;;;;25.00;80.00;;;;;;4884686;29;19912;-77
2022/08/04 06:41:02;;;;;;;;;;;25.10;80.00;;;;;;4869097;29;20135;-78
2022/08/04 06:43:28;;;;;;;;;;;25.20;80.00;;;;;;4886716;29;19916;-77
2022/08/04 06:45:55;;;;;;;;;;;25.30;79.70;;;;;;4884888;29;19960;-77
2022/08/04 06:48:23;;;;;;;;;;;25.40;79.60;;;;;;4875365;29;19912;-77
2022/08/04 06:50:49;;;;;;;;;;;25.50;79.60;;;;;;4865319;29;19912;-77
2022/08/04 06:53:15;;;;;;;;;;;25.50;79.60;;;;;;4849065;29;19956;-77
2022/08/04 06:55:42;;;;;;;;;;;25.70;79.30;;;;;;4865675;29;19953;-76
2022/08/04 06:58:08;;;;;;;;;;;25.80;78.60;;;;;;4870426;29;19990;-78
2022/08/04 07:00:34;;;;;;;;;;;25.90;78.20;;;;;;4881952;29;19960;-77
2022/08/04 07:03:04;;;;;;;;;;;26.10;78.00;;;;;;4881875;29;19920;-77
2022/08/04 07:05:34;;;;;;;;;;;26.10;77.70;;;;;;4885897;29;19912;-75
2022/08/04 07:08:00;;;;;;;;;;;26.20;77.40;;;;;;4863768;29;19919;-77
2022/08/04 07:10:26;;;;;;;;;;;26.30;77.20;;;;;;4851162;29;19912;-81
2022/08/04 07:12:56;;;;;;;;;;;26.30;77.20;;;;;;4837280;29;19940;-79
2022/08/04 07:15:34;;;;;;;;;;;26.40;77.10;;;;;;4856006;29;19920;-81
2022/08/04 07:18:23;;;;;;;;;;;26.50;76.70;;;;;;4858818;29;19927;-79
2022/08/04 07:20:55;;;;;;;;;;;26.70;76.50;;;;;;4868218;29;20101;-78
2022/08/04 07:23:23;;;;;;;;;;;26.70;76.20;;;;;;4855332;29;19959;-80
2022/08/04 07:25:57;;;;;;;;;;;26.90;76.20;;;;;;4859167;29;20150;-78
2022/08/04 07:28:24;;;;;;;;;;;27.00;75.90;;;;;;4851611;29;19916;-78
2022/08/04 07:30:51;;;;;;;;;;;27.20;75.50;;;;;;4849379;29;19934;-78
2022/08/04 07:33:23;;;;;;;;;;;27.20;75.30;;;;;;4867468;29;19924;-79
2022/08/04 07:35:52;;;;;;;;;;;27.40;74.90;;;;;;4857610;29;20261;-78
2022/08/04 07:38:18;;;;;;;;;;;27.50;74.90;;;;;;4867540;29;19930;-78
2022/08/04 07:41:25;;;;;;;;;;;27.60;74.60;;;;;;4868476;29;19986;-77
2022/08/04 07:43:46;;;;;;;;;;;27.70;74.20;;;;;;4865344;29;19955;-80
2022/08/04 07:46:12;;;;;;;;;;;27.90;73.90;;;;;;4875213;29;19911;-77
2022/08/04 07:48:38;;;;;;;;;;;28.00;73.80;;;;;;4858100;29;19912;-78
2022/08/04 07:51:04;;;;;;;;;;;28.10;73.40;;;;;;4853102;29;20077;-78
2022/08/04 07:53:33;;;;;;;;;;;28.30;73.80;;;;;;4864416;29;19927;-78
2022/08/04 07:55:59;;;;;;;;;;;28.40;72.70;;;;;;4862712;29;19912;-76
2022/08/04 07:58:26;;;;;;;;;;;28.50;72.20;;;;;;4883352;29;19912;-76
2022/08/04 08:00:53;;;;;;;;;;;28.60;71.80;;;;;;4862387;29;19919;-77
2022/08/04 08:03:21;;;;;;;;;;;28.70;71.50;;;;;;4836570;29;19920;-76
2022/08/04 08:05:50;;;;;;;;;;;28.90;71.30;;;;;;4849433;29;19924;-78
2022/08/04 08:08:39;;;;;;;;;;;29.00;70.90;;;;;;4861859;29;19920;-78
2022/08/04 08:11:06;;;;;;;;;;;29.10;70.50;;;;;;4847380;29;19912;-77
2022/08/04 08:13:44;;;;;;;;;;;29.20;70.20;;;;;;4866426;29;19927;-76
2022/08/04 08:16:10;;;;;;;;;;;29.30;69.80;;;;;;4854405;29;19960;-77
2022/08/04 08:18:36;;;;;;;;;;;29.50;69.20;;;;;;4838098;29;20225;-76
2022/08/04 08:21:06;;;;;;;;;;;29.50;69.10;;;;;;4847926;29;19912;-78
2022/08/04 08:23:33;;;;;;;;;;;29.70;68.80;;;;;;4847344;29;19912;-76
2022/08/04 08:25:59;;;;;;;;;;;29.70;68.30;;;;;;4819780;29;19970;-76
2022/08/04 08:28:37;;;;;;;;;;;29.70;67.90;;;;;;4838347;29;19913;-77
2022/08/04 08:31:02;;;;;;;;;;;29.80;68.20;;;;;;4831516;29;19991;-77
2022/08/04 08:33:28;;;;;;;;;;;29.80;68.00;;;;;;4849934;29;20055;-76
2022/08/04 08:39:11;;;;;;;;;;;29.90;67.70;;;;;;4853918;29;19954;-79
2022/08/04 08:41:56;;;;;;;;;;;30.00;67.60;;;;;;4867690;29;19931;-79
2022/08/04 08:44:40;;;;;;;;;;;30.10;67.30;;;;;;4850875;29;19950;-80
2022/08/04 08:47:30;;;;;;;;;;;30.10;67.30;;;;;;4867563;29;20150;-77
2022/08/04 08:50:00;;;;;;;;;;;30.20;67.10;;;;;;4868658;29;19912;-78
2022/08/04 08:52:45;;;;;;;;;;;30.40;66.80;;;;;;4850991;29;20212;-79
2022/08/04 08:55:30;;;;;;;;;;;30.50;66.70;;;;;;4850514;29;19923;-78
2022/08/04 08:58:15;;;;;;;;;;;30.60;66.00;;;;;;4850469;29;20074;-77
2022/08/04 09:00:49;;;;;;;;;;;30.70;65.80;;;;;;4849851;29;19912;-77
2022/08/04 09:03:17;;;;;;;;;;;30.90;65.40;;;;;;4866566;29;20288;-80
2022/08/04 09:05:58;;;;;;;;;;;30.90;65.20;;;;;;4877244;29;19919;-76
2022/08/04 09:08:52;;;;;;;;;;;31.00;65.00;;;;;;4873579;29;19912;-77
2022/08/04 09:11:19;;;;;;;;;;;31.20;64.70;;;;;;4863526;29;19971;-74
2022/08/04 09:13:55;;;;;;;;;;;31.30;65.00;;;;;;4849337;29;19975;-76
2022/08/04 09:16:39;;;;;;;;;;;31.40;64.00;;;;;;4864323;29;20216;-76
2022/08/04 09:19:21;;;;;;;;;;;31.40;63.70;;;;;;4865889;29;19983;-78
2022/08/04 09:22:03;;;;;;;;;;;31.50;63.50;;;;;;4866055;29;19943;-79
2022/08/04 09:24:47;;;;;;;;;;;31.70;63.50;;;;;;4866229;29;19919;-76
2022/08/04 09:27:18;;;;;;;;;;;31.70;63.10;;;;;;4856301;29;19956;-78
2022/08/04 09:29:59;;;;;;;;;;;31.90;62.90;;;;;;4866452;29;20126;-76
2022/08/04 09:32:47;;;;;;;;;;;31.90;62.70;;;;;;4863709;29;19979;-76
2022/08/04 09:35:37;;;;;;;;;;;32.10;62.40;;;;;;4849717;29;19942;-78
2022/08/04 09:38:21;;;;;;;;;;;32.10;62.10;;;;;;4855467;29;20241;-79
2022/08/04 09:41:15;;;;;;;;;;;32.10;61.70;;;;;;4842589;29;19912;-78
2022/08/04 09:44:03;;;;;;;;;;;32.30;61.50;;;;;;4866089;29;19916;-77
2022/08/04 09:46:47;;;;;;;;;;;32.40;60.70;;;;;;4864942;29;19975;-78
2022/08/04 09:49:33;;;;;;;;;;;32.60;60.80;;;;;;4866419;29;19912;-78
2022/08/04 09:52:17;;;;;;;;;;;32.60;59.90;;;;;;4847051;29;19912;-78
2022/08/04 09:55:08;;;;;;;;;;;32.80;59.60;;;;;;4844589;29;20201;-77
2022/08/04 09:57:40;;;;;;;;;;;32.80;59.40;;;;;;4866003;29;19912;-76
2022/08/04 10:00:15;;;;;;;;;;;32.80;59.60;;;;;;4835214;29;19965;-78
2022/08/04 10:02:48;;;;;;;;;;;32.90;60.00;;;;;;4850890;29;19930;-78
2022/08/04 10:05:18;;;;;;;;;;;33.10;59.50;;;;;;4865454;29;19935;-77
2022/08/04 10:07:56;;;;;;;;;;;33.10;58.70;;;;;;4848442;29;20015;-78
2022/08/04 10:10:49;;;;;;;;;;;33.10;59.00;;;;;;4866239;29;19940;-79
2022/08/04 10:13:21;;;;;;;;;;;33.20;58.90;;;;;;4841852;29;20076;-76
2022/08/04 10:16:14;;;;;;;;;;;33.40;59.00;;;;;;4833724;29;19919;-76
2022/08/04 10:19:18;;;;;;;;;;;33.60;58.70;;;;;;4848714;29;19913;-76
2022/08/04 10:21:49;;;;;;;;;;;33.70;58.30;;;;;;4792812;30;19913;-78
2022/08/04 10:24:49;;;;;;;;;;;33.80;57.30;;;;;;4792295;30;20379;-76
2022/08/04 10:27:17;;;;;;;;;;;33.90;56.30;;;;;;4791680;30;19914;-78
2022/08/04 10:29:46;;;;;;;;;;;33.90;57.30;;;;;;4792361;29;19913;-77
2022/08/04 10:32:35;;;;;;;;;;;34.00;57.60;;;;;;4778148;29;19921;-78
2022/08/04 10:39:02;;;;;;;;;;;34.10;55.80;;;;;;4731805;30;19935;-81
2022/08/04 10:41:45;;;;;;;;;;;34.30;55.80;;;;;;4718871;30;19922;-77
2022/08/04 10:44:11;;;;;;;;;;;34.40;55.40;;;;;;4712298;30;19971;-77
2022/08/04 10:46:41;;;;;;;;;;;34.40;55.20;;;;;;4705172;30;19989;-78
2022/08/04 10:49:32;;;;;;;;;;;34.60;55.40;;;;;;4708660;30;20212;-77
2022/08/04 10:55:37;;;;;;;;;;;34.80;54.50;;;;;;4723740;30;20033;-78
2022/08/04 10:58:16;;;;;;;;;;;34.90;54.50;;;;;;4723705;30;19914;-77
2022/08/04 11:01:32;;;;;;;;;;;35.10;53.70;;;;;;4731125;30;19964;-79
2022/08/04 11:04:03;;;;;;;;;;;35.20;51.80;;;;;;4723668;30;19926;-79
2022/08/04 11:06:29;;;;;;;;;;;35.30;50.10;;;;;;4736061;30;19914;-79
2022/08/04 11:08:55;;;;;;;;;;;35.40;50.80;;;;;;4718743;30;20076;-78
2022/08/04 11:11:25;;;;;;;;;;;35.50;50.30;;;;;;4738418;29;19910;-77
2022/08/04 11:14:26;;;;;;;;;;;35.60;50.50;;;;;;4807398;29;20119;-79
2022/08/04 11:16:59;;;;;;;;;;;35.70;50.80;;;;;;4789950;29;20086;-78
2022/08/04 11:19:43;;;;;;;;;;;36.00;51.20;;;;;;4844288;29;20208;-78
2022/08/04 11:22:46;;;;;;;;;;;36.10;50.80;;;;;;4848017;29;19913;-77
2022/08/04 11:25:18;;;;;;;;;;;36.40;50.00;;;;;;4830126;29;20103;-80
2022/08/04 11:27:56;;;;;;;;;;;36.70;50.30;;;;;;4851389;29;19919;-78
2022/08/04 11:30:23;;;;;;;;;;;36.80;50.00;;;;;;4865044;29;19971;-79
2022/08/04 11:32:52;;;;;;;;;;;37.00;49.80;;;;;;4863612;29;19942;-78
2022/08/04 11:35:29;;;;;;;;;;;37.40;49.20;;;;;;4866635;29;20206;-76
2022/08/04 11:41:03;;;;;;;;;;;38.60;48.10;;;;;;4860256;29;19934;-76
2022/08/04 11:43:46;;;;;;;;;;;39.30;47.40;;;;;;4864786;29;19927;-75
2022/08/04 11:46:14;;;;;;;;;;;40.10;46.90;;;;;;4845029;29;19974;-79
2022/08/04 11:48:43;;;;;;;;;;;40.80;46.00;;;;;;4862523;29;20130;-77
2022/08/04 11:51:12;;;;;;;;;;;41.50;45.50;;;;;;4866579;29;19920;-79
2022/08/04 11:53:58;;;;;;;;;;;42.30;45.00;;;;;;4849661;29;19977;-78
2022/08/04 11:56:27;;;;;;;;;;;42.90;44.10;;;;;;4849238;29;20007;-75
2022/08/04 11:59:03;;;;;;;;;;;43.90;43.60;;;;;;4843696;29;19950;-74
2022/08/04 12:01:42;;;;;;;;;;;44.70;42.70;;;;;;4864055;29;20872;-78
2022/08/04 12:04:27;;;;;;;;;;;45.50;42.30;;;;;;4864422;29;20274;-77
2022/08/04 12:07:06;;;;;;;;;;;46.40;41.80;;;;;;4866136;29;20205;-76
2022/08/04 12:09:35;;;;;;;;;;;47.10;41.50;;;;;;4849356;29;19983;-78
2022/08/04 12:12:06;;;;;;;;;;;47.40;40.30;;;;;;4841640;29;19944;-77
2022/08/04 12:14:39;;;;;;;;;;;47.30;40.60;;;;;;4864611;29;20206;-76
2022/08/04 12:17:38;;;;;;;;;;;47.70;40.40;;;;;;4868222;29;19912;-77
2022/08/04 12:20:06;;;;;;;;;;;47.70;40.10;;;;;;4846672;29;20170;-78
2022/08/04 12:22:41;;;;;;;;;;;46.30;40.20;;;;;;4847880;29;20194;-77
2022/08/04 12:25:35;;;;;;;;;;;44.60;41.40;;;;;;4840916;29;19936;-78
2022/08/04 12:28:06;;;;;;;;;;;44.20;41.80;;;;;;4862445;29;19984;-76
2022/08/04 12:30:48;;;;;;;;;;;43.50;42.30;;;;;;4859932;29;19993;-80
2022/08/04 12:33:26;;;;;;;;;;;43.60;42.90;;;;;;4851091;29;19920;-76
2022/08/04 12:39:37;;;;;;;;;;;45.10;41.20;;;;;;4869283;29;20012;-78
2022/08/04 12:45:32;;;;;;;;;;;47.40;40.60;;;;;;4865627;29;20020;-77
2022/08/04 12:48:01;;;;;;;;;;;49.00;39.70;;;;;;4860417;29;19919;-77
2022/08/04 12:50:30;;;;;;;;;;;50.00;39.00;;;;;;4860206;29;19916;-75
2022/08/04 12:52:57;;;;;;;;;;;50.30;38.70;;;;;;4862194;29;19957;-75
2022/08/04 12:55:28;;;;;;;;;;;49.80;38.40;;;;;;4861142;29;19926;-77
2022/08/04 12:57:57;;;;;;;;;;;50.10;38.80;;;;;;4854582;29;19945;-75
2022/08/04 13:00:42;;;;;;;;;;;50.70;38.30;;;;;;4843996;29;19915;-76
2022/08/04 13:03:12;;;;;;;;;;;51.40;37.70;;;;;;4857757;29;19967;-76
2022/08/04 13:05:39;;;;;;;;;;;52.30;37.80;;;;;;4857552;29;19912;-77
2022/08/04 13:08:06;;;;;;;;;;;53.30;37.50;;;;;;4845119;29;19919;-76
2022/08/04 13:10:46;;;;;;;;;;;54.10;37.00;;;;;;4843309;29;19912;-77
2022/08/04 13:13:14;;;;;;;;;;;54.00;36.50;;;;;;4865003;29;19952;-79
2022/08/04 13:15:40;;;;;;;;;;;54.60;36.20;;;;;;4848039;29;20108;-77
2022/08/04 13:18:33;;;;;;;;;;;54.20;36.20;;;;;;4845029;29;19948;-78
2022/08/04 13:21:20;;;;;;;;;;;54.50;36.50;;;;;;4847577;29;19912;-80
2022/08/04 13:23:46;;;;;;;;;;;55.00;35.70;;;;;;4847574;29;19916;-76
2022/08/04 13:26:15;;;;;;;;;;;55.10;35.90;;;;;;4846761;29;19912;-77
2022/08/04 13:28:45;;;;;;;;;;;55.90;35.90;;;;;;4832027;29;19992;-77
2022/08/04 13:31:16;;;;;;;;;;;56.10;35.70;;;;;;4848351;29;19928;-78
2022/08/04 13:33:42;;;;;;;;;;;56.70;35.20;;;;;;4862588;29;19955;-80
2022/08/04 13:36:18;;;;;;;;;;;57.10;35.10;;;;;;4864821;29;19916;-77
2022/08/04 13:39:13;;;;;;;;;;;56.60;34.90;;;;;;4864736;29;20007;-77
2022/08/04 13:44:47;;;;;;;;;;;55.50;35.10;;;;;;4867527;29;19916;-77
2022/08/04 13:47:52;;;;;;;;;;;;;;;;;;;;;
2022/08/04 13:50:25;;;;;;;;;;;56.90;35.10;;;;;;4867367;29;19960;-77
2022/08/04 13:52:52;;;;;;;;;;;57.20;34.50;;;;;;4836069;29;19947;-81
2022/08/04 13:55:34;;;;;;;;;;;57.10;34.70;;;;;;4846700;29;19912;-79
2022/08/04 14:01:37;;;;;;;;;;;55.90;35.20;;;;;;4845480;29;19928;-79
2022/08/04 14:04:34;;;;;;;;;;;56.30;34.40;;;;;;4838790;29;19954;-77
2022/08/04 14:07:00;;;;;;;;;;;56.10;34.90;;;;;;4865142;29;19995;-75
2022/08/04 14:09:35;;;;;;;;;;;57.30;34.40;;;;;;4847947;29;19930;-75
2022/08/04 14:12:12;;;;;;;;;;;58.10;34.70;;;;;;4863697;29;19911;-77
2022/08/04 14:14:45;;;;;;;;;;;58.90;34.60;;;;;;4856405;29;19952;-76
2022/08/04 14:17:12;;;;;;;;;;;59.00;33.70;;;;;;4845406;29;19912;-78
2022/08/04 14:20:16;;;;;;;;;;;59.10;33.60;;;;;;4828569;29;19913;-77
2022/08/04 14:26:42;;;;;;;;;;;59.20;33.80;;;;;;4642107;30;19972;-76
2022/08/04 14:29:09;;;;;;;;;;;58.10;33.40;;;;;;4805930;29;19913;-77
2022/08/04 14:31:48;;;;;;;;;;;58.40;33.60;;;;;;4780731;29;19920;-77
2022/08/04 14:34:27;;;;;;;;;;;57.70;33.40;;;;;;4802955;29;19945;-76
2022/08/04 14:36:53;;;;;;;;;;;57.40;33.80;;;;;;4810046;29;19912;-76
2022/08/04 14:39:35;;;;;;;;;;;55.50;34.10;;;;;;4861490;29;19912;-77
2022/08/04 14:42:00;;;;;;;;;;;55.20;34.30;;;;;;4860522;29;19974;-75
2022/08/04 14:44:26;;;;;;;;;;;54.00;34.60;;;;;;4859882;29;19976;-75
2022/08/04 14:46:53;;;;;;;;;;;54.90;34.40;;;;;;4861375;29;19947;-76
2022/08/04 14:49:19;;;;;;;;;;;56.00;34.40;;;;;;4859295;29;19916;-77
2022/08/04 14:51:50;;;;;;;;;;;57.20;34.10;;;;;;4858015;29;19960;-76
2022/08/04 14:54:16;;;;;;;;;;;57.50;34.00;;;;;;4860142;29;19912;-76
2022/08/04 14:56:50;;;;;;;;;;;58.40;34.20;;;;;;4842049;29;19947;-77
2022/08/04 14:59:16;;;;;;;;;;;58.60;33.50;;;;;;4842342;29;20075;-76
2022/08/04 15:01:44;;;;;;;;;;;59.30;33.50;;;;;;4836406;29;19915;-77
2022/08/04 15:04:10;;;;;;;;;;;60.10;33.60;;;;;;4858716;29;19927;-77
2022/08/04 15:06:36;;;;;;;;;;;59.60;33.70;;;;;;4854019;29;19912;-78
2022/08/04 15:09:06;;;;;;;;;;;59.10;33.20;;;;;;4855818;29;20171;-76
2022/08/04 15:11:33;;;;;;;;;;;58.10;33.70;;;;;;4857848;29;19912;-77
2022/08/04 15:13:59;;;;;;;;;;;56.90;33.60;;;;;;4855928;29;19924;-76
2022/08/04 15:16:26;;;;;;;;;;;56.50;33.90;;;;;;4851723;29;19928;-75
2022/08/04 15:18:52;;;;;;;;;;;58.00;33.80;;;;;;4856768;29;19912;-76
2022/08/04 15:21:21;;;;;;;;;;;57.80;33.50;;;;;;4835489;29;19912;-80
2022/08/04 15:23:48;;;;;;;;;;;57.70;33.70;;;;;;4851922;29;20285;-79
2022/08/04 15:26:22;;;;;;;;;;;58.00;33.80;;;;;;4855499;29;19912;-77
2022/08/04 15:28:50;;;;;;;;;;;57.70;33.30;;;;;;4856115;29;19911;-77
2022/08/04 15:31:18;;;;;;;;;;;57.20;33.40;;;;;;4853611;29;20028;-77
2022/08/04 15:33:43;;;;;;;;;;;58.00;33.60;;;;;;4854160;29;19916;-78
2022/08/04 15:36:12;;;;;;;;;;;58.60;33.50;;;;;;4853626;29;19973;-77
2022/08/04 15:38:40;;;;;;;;;;;59.20;33.40;;;;;;4821109;29;19916;-77
2022/08/04 15:41:16;;;;;;;;;;;60.10;33.00;;;;;;4832556;29;19919;-78
2022/08/04 15:43:49;;;;;;;;;;;58.70;33.00;;;;;;4837898;29;20094;-77
2022/08/04 15:46:17;;;;;;;;;;;58.90;33.20;;;;;;4808271;29;19928;-76
2022/08/04 15:48:43;;;;;;;;;;;57.80;33.10;;;;;;4792615;29;19926;-77
2022/08/04 15:51:28;;;;;;;;;;;56.80;32.90;;;;;;4768555;29;19944;-77
2022/08/04 15:54:26;;;;;;;;;;;57.50;33.40;;;;;;4813533;29;19912;-77
2022/08/04 15:56:52;;;;;;;;;;;56.20;33.20;;;;;;4846530;29;19912;-77
2022/08/04 15:59:36;;;;;;;;;;;54.90;34.00;;;;;;4848929;29;19988;-78
2022/08/04 16:02:20;;;;;;;;;;;55.40;33.80;;;;;;4842630;29;20150;-76
2022/08/04 16:04:46;;;;;;;;;;;54.40;34.20;;;;;;4842221;29;19928;-76
2022/08/04 16:07:11;;;;;;;;;;;53.80;34.60;;;;;;4838144;29;20163;-79
2022/08/04 16:10:02;;;;;;;;;;;54.60;34.70;;;;;;4831057;29;20014;-77
2022/08/04 16:12:57;;;;;;;;;;;55.60;34.20;;;;;;4864418;29;19912;-79
2022/08/04 16:15:35;;;;;;;;;;;55.40;34.10;;;;;;4823790;29;20204;-77
2022/08/04 16:18:01;;;;;;;;;;;55.70;33.70;;;;;;4843113;29;20025;-78
2022/08/04 16:20:27;;;;;;;;;;;55.10;34.10;;;;;;4859258;29;19942;-77
2022/08/04 16:22:56;;;;;;;;;;;54.30;34.00;;;;;;4844953;29;20004;-77
2022/08/04 16:25:40;;;;;;;;;;;54.00;34.20;;;;;;4859927;29;19924;-76
2022/08/04 16:28:06;;;;;;;;;;;52.70;34.60;;;;;;4838876;29;19912;-77
2022/08/04 16:30:38;;;;;;;;;;;54.70;34.70;;;;;;4840932;29;19920;-79
2022/08/04 16:33:07;;;;;;;;;;;54.70;33.80;;;;;;4849337;29;20005;-77
2022/08/04 16:35:33;;;;;;;;;;;53.60;34.10;;;;;;4852065;29;19928;-77
2022/08/04 16:38:12;;;;;;;;;;;53.60;34.70;;;;;;4835991;29;20106;-79
2022/08/04 16:40:50;;;;;;;;;;;54.00;34.00;;;;;;4856515;29;19913;-77
2022/08/04 16:43:35;;;;;;;;;;;53.30;34.50;;;;;;4858049;29;19931;-77
2022/08/04 16:46:26;;;;;;;;;;;53.50;34.50;;;;;;4850640;29;19979;-77
2022/08/04 16:49:05;;;;;;;;;;;53.70;34.50;;;;;;4859377;29;19920;-77
2022/08/04 16:51:30;;;;;;;;;;;54.40;34.60;;;;;;4867243;29;19929;-77
2022/08/04 16:54:02;;;;;;;;;;;54.00;34.30;;;;;;4867868;29;19908;-76
2022/08/04 16:56:28;;;;;;;;;;;52.60;34.50;;;;;;4865910;29;19912;-78
2022/08/04 16:58:54;;;;;;;;;;;50.40;35.80;;;;;;4868229;29;19912;-77
2022/08/04 17:01:22;;;;;;;;;;;48.90;36.60;;;;;;4866566;29;19912;-77
2022/08/04 17:03:49;;;;;;;;;;;47.80;37.90;;;;;;4849689;29;19983;-76
2022/08/04 17:06:16;;;;;;;;;;;46.60;38.30;;;;;;4849018;29;20002;-77
2022/08/04 17:08:43;;;;;;;;;;;45.80;38.80;;;;;;4847734;29;20110;-76
2022/08/04 17:11:15;;;;;;;;;;;45.10;38.80;;;;;;4866909;29;20149;-79
2022/08/04 17:13:43;;;;;;;;;;;44.60;39.50;;;;;;4852386;29;20094;-74
2022/08/04 17:16:13;;;;;;;;;;;44.00;39.70;;;;;;4834960;29;20113;-75
2022/08/04 17:18:41;;;;;;;;;;;43.40;40.20;;;;;;4816409;29;19916;-79
2022/08/04 17:21:12;;;;;;;;;;;43.70;40.10;;;;;;4822341;29;19980;-75
2022/08/04 17:23:39;;;;;;;;;;;43.30;40.30;;;;;;4844796;29;19913;-74
2022/08/04 17:26:05;;;;;;;;;;;43.00;40.40;;;;;;4848126;29;19913;-79
2022/08/04 17:28:43;;;;;;;;;;;42.70;40.60;;;;;;4847297;29;19916;-75
2022/08/04 17:31:09;;;;;;;;;;;42.40;41.20;;;;;;4845695;29;19954;-75
2022/08/04 17:33:36;;;;;;;;;;;42.10;41.10;;;;;;4838319;29;19976;-74
2022/08/04 17:36:02;;;;;;;;;;;41.80;41.40;;;;;;4847096;29;20320;-75
2022/08/04 17:38:29;;;;;;;;;;;41.80;41.60;;;;;;4843985;29;19913;-76
2022/08/04 17:40:57;;;;;;;;;;;42.10;41.70;;;;;;4844725;29;19928;-77
2022/08/04 17:43:33;;;;;;;;;;;43.20;41.10;;;;;;4820166;29;19969;-77
2022/08/04 17:46:25;;;;;;;;;;;44.30;40.50;;;;;;4847215;29;19931;-79
2022/08/04 17:49:15;;;;;;;;;;;44.90;39.80;;;;;;4834820;29;20229;-77
2022/08/04 17:51:52;;;;;;;;;;;45.60;39.40;;;;;;4837025;29;19912;-74
2022/08/04 17:54:20;;;;;;;;;;;45.80;39.00;;;;;;4830957;29;19919;-76
2022/08/04 17:56:50;;;;;;;;;;;46.10;38.80;;;;;;4856003;29;19972;-77
2022/08/04 17:59:17;;;;;;;;;;;46.20;38.70;;;;;;4856612;29;19908;-77
2022/08/04 18:01:47;;;;;;;;;;;45.90;38.60;;;;;;4847902;29;19978;-76
2022/08/04 18:04:24;;;;;;;;;;;45.30;39.00;;;;;;4866840;29;19919;-76
2022/08/04 18:06:51;;;;;;;;;;;44.10;39.60;;;;;;4863995;29;20241;-76
2022/08/04 18:09:26;;;;;;;;;;;43.00;40.50;;;;;;4862750;29;19912;-76
2022/08/04 18:11:55;;;;;;;;;;;42.00;41.70;;;;;;4862090;29;20180;-77
2022/08/04 18:14:21;;;;;;;;;;;41.10;42.20;;;;;;4863404;29;19912;-76
2022/08/04 18:16:47;;;;;;;;;;;40.60;42.80;;;;;;4863132;29;19996;-78
2022/08/04 18:19:14;;;;;;;;;;;40.10;43.60;;;;;;4862182;29;19916;-76
2022/08/04 18:21:39;;;;;;;;;;;39.40;44.00;;;;;;4855837;29;19919;-77
2022/08/04 18:24:05;;;;;;;;;;;38.90;44.70;;;;;;4851060;29;19919;-77
2022/08/04 18:26:31;;;;;;;;;;;38.50;45.10;;;;;;4851320;29;20021;-76
2022/08/04 18:28:56;;;;;;;;;;;38.20;45.30;;;;;;4844581;29;19928;-76
2022/08/04 18:31:22;;;;;;;;;;;37.90;45.70;;;;;;4854959;29;19924;-76
2022/08/04 18:33:48;;;;;;;;;;;37.50;46.20;;;;;;4858532;29;20111;-76
2022/08/04 18:36:14;;;;;;;;;;;37.20;46.80;;;;;;4861548;29;19908;-77
2022/08/04 18:38:39;;;;;;;;;;;37.00;47.30;;;;;;4854347;29;19983;-76
2022/08/04 18:41:05;;;;;;;;;;;36.80;47.60;;;;;;4841333;29;19953;-77
2022/08/04 18:43:30;;;;;;;;;;;36.60;47.70;;;;;;4843182;29;20098;-76
2022/08/04 18:45:57;;;;;;;;;;;36.50;47.90;;;;;;4839258;29;20090;-77
2022/08/04 18:48:23;;;;;;;;;;;36.40;48.60;;;;;;4840188;29;20273;-76
2022/08/04 18:50:49;;;;;;;;;;;36.10;49.20;;;;;;4827351;29;19933;-76
2022/08/04 18:53:15;;;;;;;;;;;35.90;49.50;;;;;;4875603;29;19912;-76
2022/08/04 18:55:40;;;;;;;;;;;35.60;49.70;;;;;;4876861;29;19947;-75
2022/08/04 18:58:06;;;;;;;;;;;35.40;50.20;;;;;;4874147;29;19911;-77
2022/08/04 19:00:31;;;;;;;;;;;35.30;50.30;;;;;;4874601;29;19912;-76
2022/08/04 19:02:58;;;;;;;;;;;35.20;50.50;;;;;;4875105;29;20033;-76
2022/08/04 19:05:24;;;;;;;;;;;34.90;50.70;;;;;;4873549;29;19958;-76
2022/08/04 19:07:50;;;;;;;;;;;34.80;50.90;;;;;;4856552;29;20182;-77
2022/08/04 19:10:21;;;;;;;;;;;34.70;51.10;;;;;;4866581;29;20241;-76
2022/08/04 19:12:47;;;;;;;;;;;34.40;51.30;;;;;;4816213;29;20202;-76
2022/08/04 19:15:12;;;;;;;;;;;34.20;51.40;;;;;;4859295;29;19918;-76
2022/08/04 19:17:38;;;;;;;;;;;34.00;52.00;;;;;;4856099;29;19968;-76
2022/08/04 19:20:10;;;;;;;;;;;33.80;52.30;;;;;;4820256;29;20327;-76
2022/08/04 19:22:35;;;;;;;;;;;33.70;52.50;;;;;;4862460;29;19962;-76
2022/08/04 19:25:01;;;;;;;;;;;33.60;52.80;;;;;;4843233;29;19920;-76
2022/08/04 19:27:28;;;;;;;;;;;33.50;52.80;;;;;;4864212;29;19912;-76
2022/08/04 19:29:54;;;;;;;;;;;33.40;53.00;;;;;;4859614;29;20072;-76
2022/08/04 19:32:20;;;;;;;;;;;33.20;53.30;;;;;;4857645;29;19929;-75
2022/08/04 19:34:46;;;;;;;;;;;33.10;53.90;;;;;;4859957;29;19912;-76
2022/08/04 19:37:12;;;;;;;;;;;32.90;54.10;;;;;;4856558;29;19988;-76
2022/08/04 19:39:37;;;;;;;;;;;32.70;54.40;;;;;;4856030;29;20150;-76
2022/08/04 19:42:03;;;;;;;;;;;32.60;54.90;;;;;;4860172;29;20234;-76
2022/08/04 19:44:28;;;;;;;;;;;32.40;55.10;;;;;;4856729;29;20106;-76
2022/08/04 19:46:54;;;;;;;;;;;32.40;55.10;;;;;;4857152;29;20090;-76
2022/08/04 19:49:20;;;;;;;;;;;32.30;55.30;;;;;;4857909;29;19935;-76
2022/08/04 19:51:45;;;;;;;;;;;32.20;55.10;;;;;;4861080;29;20010;-76
2022/08/04 19:54:11;;;;;;;;;;;32.10;55.40;;;;;;4873813;29;19935;-76
2022/08/04 19:56:37;;;;;;;;;;;32.00;55.70;;;;;;4875454;29;19982;-76
2022/08/04 19:59:02;;;;;;;;;;;31.80;56.10;;;;;;4864020;29;19912;-76
2022/08/04 20:01:28;;;;;;;;;;;31.80;56.50;;;;;;4865368;29;20202;-77
2022/08/04 20:03:57;;;;;;;;;;;31.60;56.50;;;;;;4823099;29;19921;-77
2022/08/04 20:06:24;;;;;;;;;;;31.50;56.90;;;;;;4829824;29;20103;-77
2022/08/04 20:08:50;;;;;;;;;;;31.40;57.00;;;;;;4837831;29;19913;-77
2022/08/04 20:11:16;;;;;;;;;;;31.30;57.20;;;;;;4851241;29;20193;-76
2022/08/04 20:13:41;;;;;;;;;;;31.20;57.30;;;;;;4866358;29;19969;-77
2022/08/04 20:16:07;;;;;;;;;;;31.00;57.40;;;;;;4861083;29;19908;-76